Time;durP1;ratioP1;P1;durP2;ratioP2;P2;SDS_P1;SDS_P2;PMS_P1;PMS_P2;Temp;Humidity;BMP_temperature;BMP_pressure;BME280_temperature;BME280_humidity;BME280_pressure;Samples;Min_cycle;Max_cycle;Signal;HPM_P1;HPM_P2
2023/11/17 00:01:17;;;;;;;34.13;14.40;;;2.80;99.90;;;;;;4971826;28;20027;-63
2023/11/17 00:03:43;;;;;;;28.27;14.20;;;2.70;99.90;;;;;;4983876;28;20501;-63
2023/11/17 00:06:08;;;;;;;37.75;15.00;;;2.60;99.90;;;;;;4982021;28;20538;-63
2023/11/17 00:08:34;;;;;;;34.45;14.55;;;2.60;99.90;;;;;;4982391;28;20042;-63
2023/11/17 00:11:00;;;;;;;31.23;14.07;;;2.60;99.90;;;;;;4983935;28;20371;-63
2023/11/17 00:13:26;;;;;;;34.97;15.10;;;2.50;99.90;;;;;;4959971;28;20037;-63
2023/11/17 00:15:51;;;;;;;35.35;15.13;;;2.50;99.90;;;;;;4983084;28;20062;-63
2023/11/17 00:18:20;;;;;;;33.70;14.65;;;2.60;99.90;;;;;;4983165;28;20085;-63
2023/11/17 00:20:46;;;;;;;29.10;13.77;;;2.60;99.90;;;;;;4985654;28;20041;-63
2023/11/17 00:23:13;;;;;;;27.30;13.27;;;2.60;99.90;;;;;;4986228;28;20018;-63
2023/11/17 00:25:41;;;;;;;30.77;14.07;;;2.50;99.90;;;;;;4983367;28;20023;-63
2023/11/17 00:28:07;;;;;;;35.80;16.13;;;2.60;99.90;;;;;;4976714;28;20043;-63
2023/11/17 00:30:32;;;;;;;31.05;13.60;;;2.60;99.90;;;;;;4982111;28;20023;-63
2023/11/17 00:32:58;;;;;;;35.40;14.43;;;2.50;99.90;;;;;;4984356;28;20030;-63
2023/11/17 00:35:24;;;;;;;26.92;13.52;;;2.50;99.90;;;;;;4982783;28;20046;-63
2023/11/17 00:37:51;;;;;;;34.17;14.55;;;2.50;99.90;;;;;;4978417;28;20437;-63
2023/11/17 00:40:17;;;;;;;33.83;14.15;;;2.50;99.90;;;;;;4982533;28;20050;-63
2023/11/17 00:42:45;;;;;;;29.23;14.13;;;2.50;99.90;;;;;;4982771;28;20015;-63
2023/11/17 00:45:11;;;;;;;28.05;13.85;;;2.50;99.90;;;;;;4982725;28;20034;-63
2023/11/17 00:47:40;;;;;;;28.08;13.77;;;2.50;99.90;;;;;;4985679;28;20061;-63
2023/11/17 00:50:10;;;;;;;29.38;13.55;;;2.50;99.90;;;;;;4985010;28;20034;-63
2023/11/17 00:52:37;;;;;;;32.33;14.52;;;2.60;99.90;;;;;;4983696;28;20026;-63
2023/11/17 00:55:06;;;;;;;28.48;14.82;;;2.70;99.90;;;;;;4983855;28;20069;-63
2023/11/17 00:57:32;;;;;;;35.60;15.02;;;2.70;99.90;;;;;;4987147;28;20022;-63
2023/11/17 00:59:58;;;;;;;31.25;14.80;;;2.70;99.90;;;;;;4981394;28;20561;-64
2023/11/17 01:02:25;;;;;;;28.58;14.10;;;2.70;99.90;;;;;;4986395;28;20073;-64
2023/11/17 01:04:50;;;;;;;35.55;15.48;;;2.70;99.90;;;;;;4982549;28;20045;-63
2023/11/17 01:07:18;;;;;;;30.65;14.95;;;2.70;99.90;;;;;;4980960;28;20038;-63
2023/11/17 01:09:43;;;;;;;35.35;14.82;;;2.70;99.90;;;;;;4983764;28;20112;-64
2023/11/17 01:12:09;;;;;;;29.20;14.40;;;2.70;99.90;;;;;;4977921;28;20038;-65
2023/11/17 01:14:35;;;;;;;38.10;15.68;;;2.80;99.90;;;;;;4982387;28;20470;-65
2023/11/17 01:17:01;;;;;;;32.30;15.30;;;3.00;99.90;;;;;;4981002;28;20081;-65
2023/11/17 01:19:26;;;;;;;36.25;15.90;;;3.10;99.90;;;;;;4986604;28;20467;-65
2023/11/17 01:21:53;;;;;;;34.33;15.63;;;3.10;99.90;;;;;;4985461;28;20026;-65
2023/11/17 01:24:18;;;;;;;34.08;15.75;;;3.10;99.90;;;;;;4984516;28;20085;-65
2023/11/17 01:26:44;;;;;;;34.47;14.85;;;3.10;99.90;;;;;;4980734;28;20034;-65
2023/11/17 01:29:09;;;;;;;34.90;15.25;;;3.00;99.90;;;;;;4979074;28;20033;-65
2023/11/17 01:31:35;;;;;;;37.50;16.88;;;2.80;99.90;;;;;;4984357;28;20059;-66
2023/11/17 01:34:01;;;;;;;34.67;15.25;;;2.80;99.90;;;;;;4980133;28;20031;-66
2023/11/17 01:36:26;;;;;;;39.80;16.55;;;2.70;99.90;;;;;;4983491;28;20582;-66
2023/11/17 01:38:55;;;;;;;35.25;15.68;;;2.80;99.90;;;;;;4983240;28;20069;-66
2023/11/17 01:41:21;;;;;;;37.85;16.38;;;3.00;99.90;;;;;;4974410;28;20051;-65
2023/11/17 01:43:47;;;;;;;37.58;17.40;;;3.10;99.90;;;;;;4986173;28;20157;-65
2023/11/17 01:46:13;;;;;;;36.70;16.55;;;3.10;99.90;;;;;;4984743;28;20064;-65
2023/11/17 01:48:43;;;;;;;39.42;16.95;;;3.00;99.90;;;;;;4976978;28;20030;-66
2023/11/17 01:51:09;;;;;;;36.15;16.27;;;3.00;99.90;;;;;;4983260;28;20026;-66
2023/11/17 01:53:34;;;;;;;40.75;17.70;;;2.90;99.90;;;;;;4979998;28;20090;-66
2023/11/17 01:56:00;;;;;;;40.35;16.17;;;2.70;99.90;;;;;;4978405;28;20060;-66
2023/11/17 01:58:27;;;;;;;37.60;17.45;;;2.50;99.90;;;;;;4970744;28;20057;-66
2023/11/17 02:00:53;;;;;;;32.95;16.08;;;2.30;99.90;;;;;;4981413;28;20037;-66
2023/11/17 02:03:19;;;;;;;35.10;15.85;;;2.20;99.90;;;;;;4977917;28;20026;-66
2023/11/17 02:05:49;;;;;;;36.42;16.30;;;2.00;99.90;;;;;;4984259;28;20041;-66
2023/11/17 02:08:27;;;;;;;38.47;17.40;;;1.90;99.90;;;;;;4979556;28;20483;-66
2023/11/17 02:10:56;;;;;;;46.65;18.88;;;2.00;99.90;;;;;;4977011;28;20050;-66
2023/11/17 02:13:31;;;;;;;42.72;17.50;;;2.20;99.90;;;;;;4972093;28;20578;-66
2023/11/17 02:16:02;;;;;;;37.92;18.00;;;2.40;99.90;;;;;;4972169;28;20035;-66
2023/11/17 02:18:30;;;;;;;45.50;19.17;;;2.50;99.90;;;;;;4974943;28;20027;-66
2023/11/17 02:20:58;;;;;;;46.33;18.58;;;2.50;99.90;;;;;;4980123;28;20102;-67
2023/11/17 02:23:26;;;;;;;41.30;18.05;;;2.50;99.90;;;;;;4980743;28;20097;-67
2023/11/17 02:26:03;;;;;;;40.45;18.10;;;2.40;99.90;;;;;;4978255;28;20027;-67
2023/11/17 02:28:58;;;;;;;41.50;18.98;;;2.50;99.90;;;;;;4980301;28;20146;-67
2023/11/17 02:31:31;;;;;;;42.53;19.45;;;2.60;99.90;;;;;;4979597;28;20030;-67
2023/11/17 02:34:05;;;;;;;41.17;19.27;;;2.80;99.90;;;;;;4975193;28;20058;-67
2023/11/17 02:36:32;;;;;;;40.10;17.95;;;2.90;99.90;;;;;;4982408;28;20045;-67
2023/11/17 02:39:14;;;;;;;35.92;17.00;;;2.90;99.90;;;;;;4978316;28;20019;-67
2023/11/17 02:41:48;;;;;;;37.75;16.80;;;2.90;99.90;;;;;;4978263;28;20098;-67
2023/11/17 02:44:18;;;;;;;37.92;17.10;;;2.90;99.90;;;;;;4977600;28;20037;-67
2023/11/17 02:46:44;;;;;;;42.55;17.85;;;2.90;99.90;;;;;;4980485;28;20434;-67
2023/11/17 02:49:22;;;;;;;43.53;18.45;;;2.90;99.90;;;;;;4979341;28;20106;-67
2023/11/17 02:51:51;;;;;;;40.28;17.95;;;3.00;99.90;;;;;;4974696;28;20044;-67
2023/11/17 02:54:20;;;;;;;38.85;18.10;;;3.00;99.90;;;;;;4979053;28;20026;-67
2023/11/17 02:56:48;;;;;;;35.55;16.85;;;3.00;99.90;;;;;;4980507;28;20026;-67
2023/11/17 02:59:17;;;;;;;37.08;16.02;;;3.00;99.90;;;;;;4975622;28;20019;-67
2023/11/17 03:01:44;;;;;;;34.63;15.63;;;3.00;99.90;;;;;;4977199;28;20050;-67
2023/11/17 03:04:15;;;;;;;31.35;16.10;;;2.90;99.90;;;;;;4980972;28;20056;-67
2023/11/17 03:06:46;;;;;;;34.97;15.60;;;2.80;99.90;;;;;;4982108;28;20022;-67
2023/11/17 03:09:26;;;;;;;31.08;14.90;;;2.80;99.90;;;;;;4974003;28;20049;-67
2023/11/17 03:11:55;;;;;;;34.88;15.90;;;2.70;99.90;;;;;;4978498;28;20023;-67
2023/11/17 03:14:24;;;;;;;30.45;14.43;;;2.70;99.90;;;;;;4975762;28;20700;-67
2023/11/17 03:16:52;;;;;;;36.35;15.63;;;2.70;99.90;;;;;;4979847;28;20030;-67
2023/11/17 03:19:18;;;;;;;41.80;15.73;;;2.70;99.90;;;;;;4978162;28;20413;-67
2023/11/17 03:21:45;;;;;;;41.95;17.60;;;2.70;99.90;;;;;;4978675;28;20355;-67
2023/11/17 03:24:17;;;;;;;35.17;16.52;;;2.90;99.90;;;;;;4980431;28;20057;-67
2023/11/17 03:26:54;;;;;;;35.97;17.60;;;2.90;99.90;;;;;;4978596;28;20477;-67
2023/11/17 03:29:21;;;;;;;42.58;17.42;;;2.70;99.90;;;;;;4978563;28;20019;-67
2023/11/17 03:31:49;;;;;;;40.67;17.52;;;2.60;99.90;;;;;;4980659;28;20033;-64
2023/11/17 03:34:28;;;;;;;42.85;18.80;;;2.50;99.90;;;;;;4946597;28;20065;-64
2023/11/17 03:37:00;;;;;;;43.25;18.10;;;2.30;99.90;;;;;;4974142;28;20054;-64
2023/11/17 03:39:30;;;;;;;41.20;18.15;;;2.20;99.90;;;;;;4977020;28;20118;-64
2023/11/17 03:41:57;;;;;;;46.63;18.80;;;2.10;99.90;;;;;;4980197;28;20046;-64
2023/11/17 03:44:27;;;;;;;44.88;19.48;;;2.10;99.90;;;;;;4977014;28;20038;-64
2023/11/17 03:46:54;;;;;;;;;;;2.10;99.90;;;;;;4980257;28;20121;-64
2023/11/17 03:49:20;;;;;;;41.30;18.02;;;2.00;99.90;;;;;;4979011;28;19906;-64
2023/11/17 03:51:50;;;;;;;43.75;19.40;;;2.10;99.90;;;;;;4976821;28;20019;-64
2023/11/17 03:54:16;;;;;;;43.35;19.45;;;2.10;99.90;;;;;;4971876;28;20105;-64
2023/11/17 03:56:44;;;;;;;42.70;18.52;;;2.10;99.90;;;;;;4978874;28;20042;-64
2023/11/17 03:59:13;;;;;;;43.58;18.60;;;2.10;99.90;;;;;;4976621;28;20030;-64
2023/11/17 04:01:42;;;;;;;38.25;18.05;;;2.20;99.90;;;;;;4980946;28;20430;-64
2023/11/17 04:04:08;;;;;;;44.33;17.60;;;2.20;99.90;;;;;;4977493;28;20066;-64
2023/11/17 04:06:37;;;;;;;38.30;17.90;;;2.20;99.90;;;;;;4983203;28;20316;-64
2023/11/17 04:09:07;;;;;;;38.83;17.33;;;2.20;99.90;;;;;;4982196;28;20430;-64
2023/11/17 04:11:33;;;;;;;42.60;18.20;;;2.20;99.90;;;;;;4981034;28;20435;-64
2023/11/17 04:13:59;;;;;;;40.53;18.10;;;2.00;99.90;;;;;;4984029;28;20030;-64
2023/11/17 04:16:25;;;;;;;45.90;18.80;;;1.90;99.90;;;;;;4979469;28;20130;-64
2023/11/17 04:18:51;;;;;;;56.25;20.75;;;1.90;99.90;;;;;;4982795;28;20041;-64
2023/11/17 04:21:17;;;;;;;48.63;20.95;;;1.90;99.90;;;;;;4982347;28;20033;-64
2023/11/17 04:23:43;;;;;;;54.60;22.60;;;1.90;99.90;;;;;;4981497;28;20081;-64
2023/11/17 04:26:11;;;;;;;67.18;24.17;;;1.90;99.90;;;;;;4946897;28;20491;-64
2023/11/17 04:28:38;;;;;;;58.20;22.92;;;1.90;99.90;;;;;;4982254;28;20026;-64
2023/11/17 04:31:05;;;;;;;66.63;25.80;;;2.00;99.90;;;;;;4980419;28;20031;-64
2023/11/17 04:33:31;;;;;;;82.57;27.67;;;2.10;99.90;;;;;;4980494;28;20033;-64
2023/11/17 04:35:56;;;;;;;76.97;26.05;;;2.20;99.90;;;;;;4982335;28;20039;-64
2023/11/17 04:38:22;;;;;;;79.38;31.55;;;2.40;99.90;;;;;;4981817;28;20041;-64
2023/11/17 04:40:48;;;;;;;93.43;30.80;;;2.50;99.90;;;;;;4979015;28;20033;-65
2023/11/17 04:43:13;;;;;;;131.48;32.08;;;2.60;99.90;;;;;;4982322;28;20026;-65
2023/11/17 04:45:42;;;;;;;151.90;38.83;;;2.70;99.90;;;;;;4981599;28;20027;-65
2023/11/17 04:48:09;;;;;;;103.40;28.02;;;2.80;99.90;;;;;;4980496;28;20046;-65
2023/11/17 04:50:36;;;;;;;93.28;24.65;;;2.80;99.90;;;;;;4983439;28;20045;-67
2023/11/17 04:53:02;;;;;;;166.52;36.00;;;2.90;99.90;;;;;;4976805;28;20136;-67
2023/11/17 04:55:28;;;;;;;112.82;30.25;;;3.00;99.90;;;;;;4980134;28;20030;-67
2023/11/17 04:57:54;;;;;;;204.02;38.08;;;3.00;99.90;;;;;;4979878;28;20023;-66
2023/11/17 05:00:20;;;;;;;147.55;33.83;;;3.00;99.90;;;;;;4980417;28;20474;-66
2023/11/17 05:02:47;;;;;;;245.05;40.78;;;3.00;99.90;;;;;;4982952;28;20018;-65
2023/11/17 05:05:15;;;;;;;176.88;35.85;;;3.00;99.90;;;;;;4980724;28;20482;-65
2023/11/17 05:07:44;;;;;;;211.20;41.60;;;3.00;99.90;;;;;;4980926;28;20026;-66
2023/11/17 05:10:11;;;;;;;223.57;36.65;;;3.00;99.90;;;;;;4980250;28;20073;-66
2023/11/17 05:12:37;;;;;;;124.93;33.90;;;2.90;99.90;;;;;;4981753;28;20080;-66
2023/11/17 05:15:04;;;;;;;117.68;32.05;;;3.00;99.90;;;;;;4978993;28;20045;-66
2023/11/17 05:17:34;;;;;;;117.07;31.38;;;3.00;99.90;;;;;;4981464;28;20080;-66
2023/11/17 05:20:00;;;;;;;138.68;35.25;;;3.00;99.90;;;;;;4981273;28;20049;-66
2023/11/17 05:22:25;;;;;;;111.32;32.72;;;3.00;99.90;;;;;;4982333;28;20037;-66
2023/11/17 05:24:53;;;;;;;96.80;32.25;;;3.00;99.90;;;;;;4979290;28;20046;-66
2023/11/17 05:27:19;;;;;;;113.90;32.47;;;2.90;99.90;;;;;;4976915;28;20038;-66
2023/11/17 05:29:45;;;;;;;85.72;30.23;;;2.90;99.90;;;;;;4981121;28;20030;-66
2023/11/17 05:32:10;;;;;;;89.35;29.95;;;2.90;99.90;;;;;;4974993;28;20263;-66
2023/11/17 05:34:36;;;;;;;99.82;30.88;;;2.90;99.90;;;;;;4981513;28;20026;-66
2023/11/17 05:37:02;;;;;;;96.13;32.20;;;2.80;99.90;;;;;;4979134;28;20018;-66
2023/11/17 05:39:27;;;;;;;89.47;30.02;;;2.70;99.90;;;;;;4978354;28;20035;-66
2023/11/17 05:41:53;;;;;;;91.78;31.23;;;2.70;99.90;;;;;;4982063;28;20110;-66
2023/11/17 05:44:19;;;;;;;103.72;31.95;;;2.50;99.90;;;;;;4981183;28;20358;-66
2023/11/17 05:46:45;;;;;;;88.65;30.92;;;2.40;99.90;;;;;;4978857;28;20050;-66
2023/11/17 05:49:11;;;;;;;100.95;32.03;;;2.20;99.90;;;;;;4979051;28;20026;-66
2023/11/17 05:51:37;;;;;;;97.55;31.10;;;2.00;99.90;;;;;;4981247;28;20049;-67
2023/11/17 05:54:05;;;;;;;100.38;30.38;;;2.00;99.90;;;;;;4978440;28;20058;-67
2023/11/17 05:56:30;;;;;;;86.15;29.38;;;1.80;99.90;;;;;;4980255;28;20032;-67
2023/11/17 05:58:57;;;;;;;86.75;27.98;;;1.70;99.90;;;;;;4978267;28;20098;-67
2023/11/17 06:01:23;;;;;;;75.75;26.35;;;1.50;99.90;;;;;;4979010;28;20023;-67
2023/11/17 06:03:49;;;;;;;89.53;28.38;;;1.40;99.90;;;;;;4980982;28;20022;-67
2023/11/17 06:06:15;;;;;;;73.85;26.73;;;1.20;99.90;;;;;;4981354;28;20057;-67
2023/11/17 06:08:40;;;;;;;70.82;25.65;;;1.10;99.90;;;;;;4981445;28;20030;-67
2023/11/17 06:11:06;;;;;;;78.85;26.33;;;1.10;99.90;;;;;;4977100;28;20042;-67
2023/11/17 06:13:32;;;;;;;83.45;27.23;;;1.10;99.90;;;;;;4980105;28;20678;-67
2023/11/17 06:15:57;;;;;;;61.33;24.48;;;1.10;99.90;;;;;;4979312;28;20038;-67
2023/11/17 06:18:23;;;;;;;89.22;28.48;;;1.10;99.90;;;;;;4980340;28;20076;-67
2023/11/17 06:20:49;;;;;;;78.55;27.60;;;1.10;99.90;;;;;;4978257;28;20402;-67
2023/11/17 06:23:15;;;;;;;82.15;26.95;;;1.30;99.90;;;;;;4980449;28;20137;-67
2023/11/17 06:25:43;;;;;;;85.70;28.45;;;1.40;99.90;;;;;;4978344;28;20038;-67
2023/11/17 06:28:11;;;;;;;81.30;27.92;;;1.50;99.90;;;;;;4978404;28;20538;-67
2023/11/17 06:30:38;;;;;;;78.55;27.98;;;1.50;99.90;;;;;;4981642;28;20041;-67
2023/11/17 06:33:03;;;;;;;85.25;29.60;;;1.60;99.90;;;;;;4977846;28;20039;-67
2023/11/17 06:35:29;;;;;;;86.50;29.50;;;1.60;99.90;;;;;;4980029;28;20030;-67
2023/11/17 06:37:54;;;;;;;94.80;30.30;;;1.80;99.90;;;;;;4977524;28;20027;-67
2023/11/17 06:40:21;;;;;;;87.88;29.98;;;1.90;99.90;;;;;;4977335;28;20033;-67
2023/11/17 06:42:46;;;;;;;90.82;30.08;;;2.00;99.90;;;;;;4979984;28;20077;-67
2023/11/17 06:45:12;;;;;;;87.30;28.92;;;2.00;99.90;;;;;;4977407;28;20475;-67
2023/11/17 06:47:42;;;;;;;71.28;27.15;;;2.00;99.90;;;;;;4980346;28;20109;-67
2023/11/17 06:50:11;;;;;;;78.78;28.25;;;1.90;99.90;;;;;;4979878;28;20110;-67
2023/11/17 06:52:37;;;;;;;79.37;28.50;;;1.90;99.90;;;;;;4976641;28;20038;-67
2023/11/17 06:55:04;;;;;;;72.40;26.48;;;1.80;99.90;;;;;;4940350;29;20148;-67
2023/11/17 06:57:32;;;;;;;86.13;29.85;;;1.70;99.90;;;;;;4975248;28;20026;-67
2023/11/17 07:00:00;;;;;;;79.15;27.38;;;1.70;99.90;;;;;;4977186;28;20054;-67
2023/11/17 07:02:28;;;;;;;83.85;27.73;;;1.60;99.90;;;;;;4974029;28;20063;-65
2023/11/17 07:04:54;;;;;;;77.93;27.45;;;1.60;99.90;;;;;;4975504;28;20084;-65
2023/11/17 07:07:20;;;;;;;86.00;28.33;;;1.50;99.90;;;;;;4973893;28;20408;-65
2023/11/17 07:09:46;;;;;;;81.68;28.35;;;1.50;99.90;;;;;;4972653;28;20035;-65
2023/11/17 07:12:11;;;;;;;85.85;29.85;;;1.50;99.90;;;;;;4970385;28;20033;-65
2023/11/17 07:14:37;;;;;;;88.85;29.52;;;1.50;99.90;;;;;;4965455;28;20096;-65
2023/11/17 07:17:04;;;;;;;94.70;31.05;;;1.50;99.90;;;;;;4963849;28;20027;-65
2023/11/17 07:19:32;;;;;;;82.97;28.63;;;1.50;99.90;;;;;;4968997;28;20049;-65
2023/11/17 07:21:58;;;;;;;86.40;28.98;;;1.60;99.90;;;;;;4967333;28;20031;-65
2023/11/17 07:24:24;;;;;;;93.65;31.23;;;1.60;99.90;;;;;;4972347;28;20426;-65
2023/11/17 07:26:50;;;;;;;89.15;30.27;;;1.60;99.90;;;;;;4966735;28;20563;-65
2023/11/17 07:29:18;;;;;;;101.35;29.98;;;1.60;99.90;;;;;;4970399;28;20523;-65
2023/11/17 07:31:45;;;;;;;89.78;29.15;;;2.30;99.90;;;;;;4973455;28;20378;-65
2023/11/17 07:34:15;;;;;;;83.50;29.60;;;1.70;99.90;;;;;;4962643;28;20030;-65
2023/11/17 07:36:42;;;;;;;94.25;30.33;;;1.80;99.90;;;;;;4972072;28;20043;-65
2023/11/17 07:39:10;;;;;;;89.80;29.40;;;2.00;99.90;;;;;;4974810;28;20034;-65
2023/11/17 07:41:35;;;;;;;93.30;30.85;;;2.20;99.90;;;;;;4974552;28;20065;-65
2023/11/17 07:44:01;;;;;;;104.47;30.13;;;2.30;99.90;;;;;;4973912;28;20561;-65
2023/11/17 07:46:27;;;;;;;97.63;28.98;;;2.40;99.90;;;;;;4978369;28;20022;-65
2023/11/17 07:48:56;;;;;;;83.13;30.02;;;2.40;99.90;;;;;;4981661;28;20026;-64
2023/11/17 07:51:22;;;;;;;93.20;30.58;;;2.60;99.90;;;;;;4977210;28;20501;-64
2023/11/17 07:53:51;;;;;;;97.95;28.65;;;2.70;99.90;;;;;;4976811;28;20172;-64
2023/11/17 07:56:18;;;;;;;95.00;30.17;;;2.70;99.90;;;;;;4976791;28;20037;-65
2023/11/17 07:58:44;;;;;;;85.65;29.50;;;2.80;99.90;;;;;;4979567;28;20324;-65
2023/11/17 08:01:10;;;;;;;78.25;28.00;;;2.80;99.90;;;;;;4980710;28;20027;-65
2023/11/17 08:03:36;;;;;;;78.03;26.95;;;3.00;99.90;;;;;;4981474;28;20033;-65
2023/11/17 08:06:04;;;;;;;80.32;28.08;;;3.00;99.90;;;;;;4982051;28;20513;-65
2023/11/17 08:08:30;;;;;;;77.93;26.58;;;3.10;99.90;;;;;;4975900;28;20390;-65
2023/11/17 08:10:56;;;;;;;75.50;25.73;;;3.20;99.90;;;;;;4981740;28;20042;-64
2023/11/17 08:13:22;;;;;;;73.40;25.70;;;3.20;99.90;;;;;;4955054;28;20121;-64
2023/11/17 08:15:50;;;;;;;81.30;26.85;;;3.30;99.90;;;;;;4980537;28;20031;-64
2023/11/17 08:18:16;;;;;;;71.60;26.15;;;3.40;99.90;;;;;;4976247;28;20038;-64
2023/11/17 08:20:44;;;;;;;83.28;28.00;;;3.40;99.90;;;;;;4972512;28;20108;-64
2023/11/17 08:23:10;;;;;;;76.10;25.35;;;3.50;99.90;;;;;;4944035;28;20173;-64
2023/11/17 08:25:39;;;;;;;69.55;25.25;;;3.60;99.90;;;;;;4966715;28;20499;-64
2023/11/17 08:28:06;;;;;;;66.07;23.60;;;3.70;99.90;;;;;;4939521;28;20098;-64
2023/11/17 08:30:34;;;;;;;66.55;23.83;;;3.70;99.90;;;;;;4941684;28;20542;-64
2023/11/17 08:33:00;;;;;;;72.43;25.77;;;3.80;99.90;;;;;;4976849;28;20513;-64
2023/11/17 08:35:26;;;;;;;74.80;26.90;;;3.90;99.90;;;;;;4975853;28;20026;-64
2023/11/17 08:37:55;;;;;;;64.30;23.95;;;4.00;99.90;;;;;;4976551;28;20050;-64
2023/11/17 08:40:21;;;;;;;58.20;23.02;;;4.10;99.90;;;;;;4979112;28;20044;-64
2023/11/17 08:42:48;;;;;;;55.22;21.42;;;4.40;99.90;;;;;;4977445;28;20043;-64
2023/11/17 08:45:14;;;;;;;54.30;20.27;;;4.80;99.90;;;;;;4980931;28;20030;-64
2023/11/17 08:47:43;;;;;;;54.67;20.55;;;5.10;99.90;;;;;;4978779;28;20060;-64
2023/11/17 08:50:09;;;;;;;41.70;16.95;;;5.30;99.90;;;;;;4980216;28;20097;-64
2023/11/17 08:52:37;;;;;;;39.30;15.82;;;5.50;99.90;;;;;;4981597;28;20537;-64
2023/11/17 08:55:14;;;;;;;40.80;15.10;;;5.50;99.90;;;;;;4980887;28;20033;-64
2023/11/17 08:57:44;;;;;;;41.45;16.02;;;5.50;99.90;;;;;;4979819;28;20049;-64
2023/11/17 09:00:18;;;;;;;38.10;16.65;;;5.50;99.90;;;;;;4973111;28;20101;-64
2023/11/17 09:02:47;;;;;;;46.08;17.90;;;5.60;99.90;;;;;;4979137;28;20486;-64
2023/11/17 09:05:14;;;;;;;;;;;5.60;99.90;;;;;;4978098;28;20031;-64
2023/11/17 09:07:50;;;;;;;44.72;16.98;;;5.70;99.90;;;;;;4980393;28;19916;-64
2023/11/17 09:10:20;;;;;;;45.13;18.33;;;5.70;99.90;;;;;;4978559;28;20126;-64
2023/11/17 09:12:47;;;;;;;39.65;16.42;;;5.80;99.90;;;;;;4979981;28;20437;-64
2023/11/17 09:15:14;;;;;;;38.08;15.85;;;5.90;99.90;;;;;;4975469;28;20027;-64
2023/11/17 09:17:40;;;;;;;43.67;16.52;;;6.10;99.90;;;;;;4979762;28;20037;-64
2023/11/17 09:20:13;;;;;;;40.42;15.85;;;6.30;99.90;;;;;;4979633;28;20074;-64
2023/11/17 09:22:39;;;;;;;39.47;14.85;;;6.40;99.90;;;;;;4975062;28;20031;-66
2023/11/17 09:25:15;;;;;;;38.00;15.07;;;6.50;99.90;;;;;;4975887;28;20057;-66
2023/11/17 09:27:47;;;;;;;40.30;15.55;;;6.30;99.90;;;;;;4976048;28;20101;-66
2023/11/17 09:30:14;;;;;;;37.72;14.55;;;6.20;99.90;;;;;;4975291;28;20050;-66
2023/11/17 09:32:48;;;;;;;36.67;15.10;;;6.10;99.90;;;;;;4977406;28;20026;-66
2023/11/17 09:35:18;;;;;;;34.90;14.70;;;6.00;99.90;;;;;;4976576;28;20260;-66
2023/11/17 09:37:59;;;;;;;37.20;14.80;;;6.00;99.90;;;;;;4976616;28;20085;-66
2023/11/17 09:40:29;;;;;;;35.28;14.50;;;6.00;99.90;;;;;;4976653;28;20014;-66
2023/11/17 09:43:02;;;;;;;33.50;14.40;;;6.20;99.90;;;;;;4978700;28;20382;-66
2023/11/17 09:45:31;;;;;;;29.98;13.18;;;6.30;99.90;;;;;;4975525;28;20023;-66
2023/11/17 09:47:59;;;;;;;29.48;13.25;;;6.50;99.90;;;;;;4951419;28;20089;-66
2023/11/17 09:50:29;;;;;;;25.60;11.07;;;6.90;99.90;;;;;;4979654;28;20098;-66
2023/11/17 09:52:57;;;;;;;27.00;9.98;;;7.50;99.90;;;;;;4975132;28;20031;-66
2023/11/17 09:55:27;;;;;;;25.50;11.18;;;8.00;99.90;;;;;;4975821;28;20030;-66
2023/11/17 09:57:54;;;;;;;28.30;10.95;;;8.10;99.90;;;;;;4976921;28;20025;-66
2023/11/17 10:00:22;;;;;;;31.42;11.70;;;8.10;99.90;;;;;;4972032;28;20225;-66
2023/11/17 10:02:54;;;;;;;27.05;11.68;;;8.00;99.90;;;;;;4979107;28;20065;-66
2023/11/17 10:05:21;;;;;;;27.35;11.85;;;7.90;99.90;;;;;;4976849;28;20035;-66
2023/11/17 10:07:49;;;;;;;25.17;11.18;;;7.80;99.90;;;;;;4979123;28;20038;-66
2023/11/17 10:10:18;;;;;;;30.73;12.02;;;7.60;99.90;;;;;;4978864;28;20253;-66
2023/11/17 10:12:49;;;;;;;27.65;10.85;;;7.50;99.90;;;;;;4978175;28;20458;-66
2023/11/17 10:15:25;;;;;;;27.35;10.73;;;7.50;99.90;;;;;;4979574;28;20375;-66
2023/11/17 10:18:01;;;;;;;25.13;9.88;;;7.50;99.90;;;;;;4971829;28;20097;-66
2023/11/17 10:20:28;;;;;;;27.40;11.02;;;7.50;99.90;;;;;;4943573;28;20023;-66
2023/11/17 10:22:54;;;;;;;26.65;11.45;;;7.50;99.90;;;;;;4977715;28;20050;-66
2023/11/17 10:25:24;;;;;;;22.98;10.25;;;7.40;99.90;;;;;;4978334;28;20037;-66
2023/11/17 10:27:51;;;;;;;25.83;9.73;;;7.60;99.90;;;;;;4976579;28;20126;-66
2023/11/17 10:30:30;;;;;;;26.10;10.43;;;7.60;99.90;;;;;;4983077;28;20378;-66
2023/11/17 10:33:28;;;;;;;26.58;11.32;;;7.60;99.90;;;;;;4975807;28;20677;-67
2023/11/17 10:36:11;;;;;;;24.95;11.43;;;7.50;99.90;;;;;;4977343;28;20031;-67
2023/11/17 10:38:45;;;;;;;29.92;11.27;;;7.40;99.90;;;;;;4974957;28;20050;-67
2023/11/17 10:41:20;;;;;;;26.50;11.65;;;7.30;99.90;;;;;;4975885;28;20019;-67
2023/11/17 10:43:50;;;;;;;28.50;11.23;;;7.30;99.90;;;;;;4979134;28;20426;-67
2023/11/17 10:46:20;;;;;;;28.25;10.77;;;7.20;99.90;;;;;;4975977;28;20030;-67
2023/11/17 10:48:46;;;;;;;28.77;11.75;;;7.20;99.90;;;;;;4974270;28;20034;-67
2023/11/17 10:51:16;;;;;;;29.15;12.07;;;7.20;99.90;;;;;;4950149;28;20037;-67
2023/11/17 10:53:42;;;;;;;32.95;12.13;;;7.20;99.90;;;;;;4978237;28;20026;-67
2023/11/17 10:56:23;;;;;;;30.50;12.13;;;7.20;99.90;;;;;;4978797;28;20442;-67
2023/11/17 10:58:52;;;;;;;29.08;11.50;;;7.20;99.90;;;;;;4942337;28;20035;-67
2023/11/17 11:01:21;;;;;;;28.40;12.37;;;7.30;99.90;;;;;;4973048;28;20225;-67
2023/11/17 11:03:46;;;;;;;23.63;10.38;;;7.40;99.90;;;;;;4966634;28;20105;-67
2023/11/17 11:06:13;;;;;;;30.20;11.48;;;7.30;99.90;;;;;;4978208;28;20186;-67
2023/11/17 11:08:51;;;;;;;29.40;10.90;;;7.40;99.90;;;;;;4976523;28;20071;-67
2023/11/17 11:11:23;;;;;;;24.55;11.02;;;7.40;99.90;;;;;;4976197;28;20438;-67
2023/11/17 11:14:07;;;;;;;24.25;10.75;;;7.40;99.90;;;;;;4978036;28;20030;-67
2023/11/17 11:16:33;;;;;;;29.23;12.95;;;7.50;99.90;;;;;;4977797;28;20059;-67
2023/11/17 11:19:02;;;;;;;28.88;12.48;;;7.60;99.90;;;;;;4983872;28;20116;-67
2023/11/17 11:21:29;;;;;;;29.27;13.13;;;7.70;99.90;;;;;;4978782;28;20431;-67
2023/11/17 11:24:00;;;;;;;28.73;11.98;;;7.70;99.90;;;;;;4979287;28;20294;-67
2023/11/17 11:26:30;;;;;;;28.08;11.95;;;7.80;99.90;;;;;;4980328;28;20362;-67
2023/11/17 11:28:57;;;;;;;;;;;8.00;99.90;;;;;;4979625;28;20178;-67
2023/11/17 11:31:23;;;;;;;26.98;11.60;;;8.10;99.90;;;;;;4981497;28;19906;-67
2023/11/17 11:33:50;;;;;;;24.55;10.80;;;8.20;99.90;;;;;;4973522;28;20034;-67
2023/11/17 11:36:16;;;;;;;26.17;10.48;;;8.30;99.90;;;;;;4976831;28;20089;-67
2023/11/17 11:38:47;;;;;;;22.27;10.50;;;8.30;99.90;;;;;;4975642;28;20035;-68
2023/11/17 11:41:16;;;;;;;23.58;9.43;;;8.40;99.90;;;;;;4978370;28;20470;-66
2023/11/17 11:43:46;;;;;;;22.58;10.07;;;8.50;99.90;;;;;;4975754;28;20037;-66
2023/11/17 11:46:16;;;;;;;20.85;9.38;;;8.60;99.90;;;;;;4982353;28;20106;-66
2023/11/17 11:48:47;;;;;;;21.55;8.77;;;8.70;99.90;;;;;;4984221;28;20038;-66
2023/11/17 11:51:14;;;;;;;21.50;8.75;;;8.70;99.90;;;;;;4980226;28;20053;-66
2023/11/17 11:53:55;;;;;;;24.65;9.48;;;8.70;99.90;;;;;;4976092;28;20122;-66
2023/11/17 11:56:31;;;;;;;21.17;9.13;;;8.80;99.90;;;;;;4978375;28;20545;-66
2023/11/17 11:58:57;;;;;;;23.55;10.25;;;8.60;99.90;;;;;;4978583;28;20025;-66
2023/11/17 12:01:23;;;;;;;24.50;10.15;;;8.40;99.90;;;;;;4982972;28;20014;-66
2023/11/17 12:04:05;;;;;;;22.27;9.90;;;8.20;99.90;;;;;;4978300;28;20031;-66
2023/11/17 12:06:33;;;;;;;21.17;9.63;;;8.10;99.90;;;;;;4981133;28;20031;-66
2023/11/17 12:09:07;;;;;;;25.90;10.85;;;8.10;99.90;;;;;;4981157;28;20089;-66
2023/11/17 12:11:51;;;;;;;23.63;9.75;;;8.10;99.90;;;;;;4977173;28;20073;-66
2023/11/17 12:14:25;;;;;;;23.50;10.32;;;8.20;99.90;;;;;;4976092;28;20023;-66
2023/11/17 12:16:54;;;;;;;23.83;9.88;;;8.30;99.90;;;;;;4978268;28;20328;-66
2023/11/17 12:19:25;;;;;;;19.73;8.85;;;8.50;99.90;;;;;;4956873;28;20155;-66
2023/11/17 12:21:51;;;;;;;20.45;8.68;;;8.60;99.90;;;;;;4980496;28;20426;-66
2023/11/17 12:24:23;;;;;;;23.33;9.65;;;8.90;99.90;;;;;;4972601;28;20023;-66
2023/11/17 12:26:53;;;;;;;24.15;9.18;;;9.30;99.90;;;;;;4980870;28;20516;-66
2023/11/17 12:29:31;;;;;;;;;;;10.30;99.90;;;;;;4972657;28;20086;-66
2023/11/17 12:31:59;;;;;;;22.77;8.52;;;11.00;99.90;;;;;;4976821;28;19905;-66
2023/11/17 12:34:26;;;;;;;19.23;8.45;;;11.60;99.90;;;;;;4973108;28;20019;-66
2023/11/17 12:37:01;;;;;;;20.02;8.10;;;11.40;99.90;;;;;;4976752;28;20046;-66
2023/11/17 12:39:41;;;;;;;19.17;7.50;;;10.90;99.90;;;;;;4974726;28;20011;-66
2023/11/17 12:42:15;;;;;;;18.60;8.50;;;10.40;99.90;;;;;;4975978;28;20026;-66
2023/11/17 12:44:41;;;;;;;19.83;8.88;;;9.90;99.90;;;;;;4976850;28;20122;-66